sensor_id;sensor_type;location;lat;lon;timestamp;temperature;humidity
44277;DHT22;29973;43.742;1.236;2022-08-25T00:01:47;22.10;99.90
44277;DHT22;29973;43.742;1.236;2022-08-25T00:04:14;21.90;99.90
44277;DHT22;29973;43.742;1.236;2022-08-25T00:06:42;21.90;99.90
44277;DHT22;29973;43.742;1.236;2022-08-25T00:09:09;21.90;99.90
44277;DHT22;29973;43.742;1.236;2022-08-25T00:11:37;21.90;99.90
44277;DHT22;29973;43.742;1.236;2022-08-25T00:14:08;21.90;99.90
44277;DHT22;29973;43.742;1.236;2022-08-25T00:16:34;21.90;99.90
44277;DHT22;29973;43.742;1.236;2022-08-25T00:19:04;21.70;99.90
44277;DHT22;29973;43.742;1.236;2022-08-25T00:21:30;21.50;99.90
44277;DHT22;29973;43.742;1.236;2022-08-25T00:23:57;21.50;99.90
44277;DHT22;29973;43.742;1.236;2022-08-25T00:26:23;21.60;99.90
44277;DHT22;29973;43.742;1.236;2022-08-25T00:28:49;21.50;99.90
44277;DHT22;29973;43.742;1.236;2022-08-25T00:31:17;21.50;99.90
44277;DHT22;29973;43.742;1.236;2022-08-25T00:33:46;21.30;99.90
44277;DHT22;29973;43.742;1.236;2022-08-25T00:36:12;21.30;99.90
44277;DHT22;29973;43.742;1.236;2022-08-25T00:38:42;21.40;99.90
44277;DHT22;29973;43.742;1.236;2022-08-25T00:41:11;21.40;99.90
44277;DHT22;29973;43.742;1.236;2022-08-25T00:46:07;21.20;99.90
44277;DHT22;29973;43.742;1.236;2022-08-25T00:48:33;21.20;99.90
44277;DHT22;29973;43.742;1.236;2022-08-25T00:51:00;21.20;99.90
44277;DHT22;29973;43.742;1.236;2022-08-25T00:53:28;21.20;99.90
44277;DHT22;29973;43.742;1.236;2022-08-25T00:55:54;21.20;99.90
44277;DHT22;29973;43.742;1.236;2022-08-25T00:58:23;21.20;99.90
44277;DHT22;29973;43.742;1.236;2022-08-25T01:00:54;21.20;99.90
44277;DHT22;29973;43.742;1.236;2022-08-25T01:03:21;21.10;99.90
44277;DHT22;29973;43.742;1.236;2022-08-25T01:05:48;21.10;99.90
44277;DHT22;29973;43.742;1.236;2022-08-25T01:08:15;21.30;99.90
44277;DHT22;29973;43.742;1.236;2022-08-25T01:10:43;21.50;99.90
44277;DHT22;29973;43.742;1.236;2022-08-25T01:13:14;21.50;99.90
44277;DHT22;29973;43.742;1.236;2022-08-25T01:15:43;21.40;99.90
44277;DHT22;29973;43.742;1.236;2022-08-25T01:18:09;21.60;99.90
44277;DHT22;29973;43.742;1.236;2022-08-25T01:20:36;21.60;99.90
44277;DHT22;29973;43.742;1.236;2022-08-25T01:23:02;21.80;99.90
44277;DHT22;29973;43.742;1.236;2022-08-25T01:28:28;21.40;99.90
44277;DHT22;29973;43.742;1.236;2022-08-25T01:30:54;21.40;99.90
44277;DHT22;29973;43.742;1.236;2022-08-25T01:33:20;21.40;99.90
44277;DHT22;29973;43.742;1.236;2022-08-25T01:35:46;21.30;99.90
44277;DHT22;29973;43.742;1.236;2022-08-25T01:38:12;21.60;99.90
44277;DHT22;29973;43.742;1.236;2022-08-25T01:40:38;21.60;99.90
44277;DHT22;29973;43.742;1.236;2022-08-25T01:45:41;21.40;99.90
44277;DHT22;29973;43.742;1.236;2022-08-25T01:48:08;21.40;99.90
44277;DHT22;29973;43.742;1.236;2022-08-25T01:50:35;21.30;99.90
44277;DHT22;29973;43.742;1.236;2022-08-25T01:53:17;21.40;99.90
44277;DHT22;29973;43.742;1.236;2022-08-25T01:55:43;21.50;99.90
44277;DHT22;29973;43.742;1.236;2022-08-25T01:58:28;22.20;99.90
44277;DHT22;29973;43.742;1.236;2022-08-25T02:00:56;22.80;99.90
44277;DHT22;29973;43.742;1.236;2022-08-25T02:03:23;23.00;99.90
44277;DHT22;29973;43.742;1.236;2022-08-25T02:05:50;22.90;99.90
44277;DHT22;29973;43.742;1.236;2022-08-25T02:08:17;23.10;99.90
44277;DHT22;29973;43.742;1.236;2022-08-25T02:10:43;23.10;99.90
44277;DHT22;29973;43.742;1.236;2022-08-25T02:13:09;23.10;99.90
44277;DHT22;29973;43.742;1.236;2022-08-25T02:15:40;23.10;99.90
44277;DHT22;29973;43.742;1.236;2022-08-25T02:18:06;23.10;99.90
44277;DHT22;29973;43.742;1.236;2022-08-25T02:20:32;23.00;99.90
44277;DHT22;29973;43.742;1.236;2022-08-25T02:22:58;23.20;99.90
44277;DHT22;29973;43.742;1.236;2022-08-25T02:25:24;23.20;99.90
44277;DHT22;29973;43.742;1.236;2022-08-25T02:27:49;23.30;99.90
44277;DHT22;29973;43.742;1.236;2022-08-25T02:30:16;23.30;99.90
44277;DHT22;29973;43.742;1.236;2022-08-25T02:32:42;23.30;99.90
44277;DHT22;29973;43.742;1.236;2022-08-25T02:35:08;23.30;99.90
44277;DHT22;29973;43.742;1.236;2022-08-25T02:37:34;23.30;99.90
44277;DHT22;29973;43.742;1.236;2022-08-25T02:40:01;23.40;99.90
44277;DHT22;29973;43.742;1.236;2022-08-25T02:42:27;23.30;99.90
44277;DHT22;29973;43.742;1.236;2022-08-25T02:44:53;23.30;99.90
44277;DHT22;29973;43.742;1.236;2022-08-25T02:47:19;23.30;99.90
44277;DHT22;29973;43.742;1.236;2022-08-25T02:49:46;23.30;99.90
44277;DHT22;29973;43.742;1.236;2022-08-25T02:52:13;23.30;99.90
44277;DHT22;29973;43.742;1.236;2022-08-25T02:54:39;23.20;99.90
44277;DHT22;29973;43.742;1.236;2022-08-25T02:57:05;23.20;99.90
44277;DHT22;29973;43.742;1.236;2022-08-25T02:59:30;23.20;99.90
44277;DHT22;29973;43.742;1.236;2022-08-25T03:01:57;23.20;99.90
44277;DHT22;29973;43.742;1.236;2022-08-25T03:04:22;23.20;99.90
44277;DHT22;29973;43.742;1.236;2022-08-25T03:06:48;23.20;99.90
44277;DHT22;29973;43.742;1.236;2022-08-25T03:09:14;23.20;99.90
44277;DHT22;29973;43.742;1.236;2022-08-25T03:11:40;23.20;99.90
44277;DHT22;29973;43.742;1.236;2022-08-25T03:14:07;23.10;99.90
44277;DHT22;29973;43.742;1.236;2022-08-25T03:16:34;23.10;99.90
44277;DHT22;29973;43.742;1.236;2022-08-25T03:19:00;23.10;99.90
44277;DHT22;29973;43.742;1.236;2022-08-25T03:21:27;23.10;99.90
44277;DHT22;29973;43.742;1.236;2022-08-25T03:23:54;23.10;99.90
44277;DHT22;29973;43.742;1.236;2022-08-25T03:26:20;23.10;99.90
44277;DHT22;29973;43.742;1.236;2022-08-25T03:29:05;23.00;99.90
44277;DHT22;29973;43.742;1.236;2022-08-25T03:31:32;23.00;99.90
44277;DHT22;29973;43.742;1.236;2022-08-25T03:33:59;22.90;99.90
44277;DHT22;29973;43.742;1.236;2022-08-25T03:36:25;22.90;99.90
44277;DHT22;29973;43.742;1.236;2022-08-25T03:38:52;22.90;99.90
44277;DHT22;29973;43.742;1.236;2022-08-25T03:41:28;22.90;99.90
44277;DHT22;29973;43.742;1.236;2022-08-25T03:43:57;22.90;99.90
44277;DHT22;29973;43.742;1.236;2022-08-25T03:46:26;22.80;99.90
44277;DHT22;29973;43.742;1.236;2022-08-25T03:48:52;22.80;99.90
44277;DHT22;29973;43.742;1.236;2022-08-25T03:51:20;22.80;99.90
44277;DHT22;29973;43.742;1.236;2022-08-25T03:53:46;22.80;99.90
44277;DHT22;29973;43.742;1.236;2022-08-25T03:56:12;22.70;99.90
44277;DHT22;29973;43.742;1.236;2022-08-25T03:58:38;22.70;99.90
44277;DHT22;29973;43.742;1.236;2022-08-25T04:01:03;22.70;99.90
44277;DHT22;29973;43.742;1.236;2022-08-25T04:03:29;22.70;99.90
44277;DHT22;29973;43.742;1.236;2022-08-25T04:05:55;22.70;99.90
44277;DHT22;29973;43.742;1.236;2022-08-25T04:08:25;22.70;99.90
44277;DHT22;29973;43.742;1.236;2022-08-25T04:10:50;22.70;99.90
44277;DHT22;29973;43.742;1.236;2022-08-25T04:13:16;22.70;99.90
44277;DHT22;29973;43.742;1.236;2022-08-25T04:15:43;22.60;99.90
44277;DHT22;29973;43.742;1.236;2022-08-25T04:18:09;22.60;99.90
44277;DHT22;29973;43.742;1.236;2022-08-25T04:20:36;22.60;99.90
44277;DHT22;29973;43.742;1.236;2022-08-25T04:23:02;22.50;99.90
44277;DHT22;29973;43.742;1.236;2022-08-25T04:25:28;22.60;99.90
44277;DHT22;29973;43.742;1.236;2022-08-25T04:27:54;22.50;99.90
44277;DHT22;29973;43.742;1.236;2022-08-25T04:30:20;22.40;99.90
44277;DHT22;29973;43.742;1.236;2022-08-25T04:32:47;22.40;99.90
44277;DHT22;29973;43.742;1.236;2022-08-25T04:35:14;22.30;99.90
44277;DHT22;29973;43.742;1.236;2022-08-25T04:37:40;22.30;99.90
44277;DHT22;29973;43.742;1.236;2022-08-25T04:40:06;22.20;99.90
44277;DHT22;29973;43.742;1.236;2022-08-25T04:42:32;22.20;99.90
44277;DHT22;29973;43.742;1.236;2022-08-25T04:44:58;22.20;99.90
44277;DHT22;29973;43.742;1.236;2022-08-25T04:47:26;22.10;99.90
44277;DHT22;29973;43.742;1.236;2022-08-25T04:49:52;22.10;99.90
44277;DHT22;29973;43.742;1.236;2022-08-25T04:52:18;22.20;99.90
44277;DHT22;29973;43.742;1.236;2022-08-25T04:54:45;22.20;99.90
44277;DHT22;29973;43.742;1.236;2022-08-25T04:57:12;22.20;99.90
44277;DHT22;29973;43.742;1.236;2022-08-25T04:59:37;22.20;99.90
44277;DHT22;29973;43.742;1.236;2022-08-25T05:02:04;22.30;99.90
44277;DHT22;29973;43.742;1.236;2022-08-25T05:04:32;22.20;99.90
44277;DHT22;29973;43.742;1.236;2022-08-25T05:06:59;22.20;99.90
44277;DHT22;29973;43.742;1.236;2022-08-25T05:09:25;22.10;99.90
44277;DHT22;29973;43.742;1.236;2022-08-25T05:11:51;22.10;99.90
44277;DHT22;29973;43.742;1.236;2022-08-25T05:14:17;22.20;99.90
44277;DHT22;29973;43.742;1.236;2022-08-25T05:16:46;22.20;99.90
44277;DHT22;29973;43.742;1.236;2022-08-25T05:19:12;22.10;99.90
44277;DHT22;29973;43.742;1.236;2022-08-25T05:21:38;22.10;99.90
44277;DHT22;29973;43.742;1.236;2022-08-25T05:24:04;22.00;99.90
44277;DHT22;29973;43.742;1.236;2022-08-25T05:26:32;22.00;99.90
44277;DHT22;29973;43.742;1.236;2022-08-25T05:29:00;21.90;99.90
44277;DHT22;29973;43.742;1.236;2022-08-25T05:31:27;22.00;99.90
44277;DHT22;29973;43.742;1.236;2022-08-25T05:33:53;22.00;99.90
44277;DHT22;29973;43.742;1.236;2022-08-25T05:36:20;22.00;99.90
44277;DHT22;29973;43.742;1.236;2022-08-25T05:38:47;21.70;99.90
44277;DHT22;29973;43.742;1.236;2022-08-25T05:41:16;21.80;99.90
44277;DHT22;29973;43.742;1.236;2022-08-25T05:43:44;21.70;99.90
44277;DHT22;29973;43.742;1.236;2022-08-25T05:46:11;21.50;99.90
44277;DHT22;29973;43.742;1.236;2022-08-25T05:48:38;21.20;99.90
44277;DHT22;29973;43.742;1.236;2022-08-25T05:51:07;21.20;99.90
44277;DHT22;29973;43.742;1.236;2022-08-25T05:53:34;21.10;99.90
44277;DHT22;29973;43.742;1.236;2022-08-25T05:56:01;21.10;99.90
44277;DHT22;29973;43.742;1.236;2022-08-25T05:58:28;21.00;99.90
44277;DHT22;29973;43.742;1.236;2022-08-25T06:00:55;20.90;99.90
44277;DHT22;29973;43.742;1.236;2022-08-25T06:03:21;21.00;99.90
44277;DHT22;29973;43.742;1.236;2022-08-25T06:05:47;21.10;99.90
44277;DHT22;29973;43.742;1.236;2022-08-25T06:08:13;21.10;99.90
44277;DHT22;29973;43.742;1.236;2022-08-25T06:10:40;21.20;99.90
44277;DHT22;29973;43.742;1.236;2022-08-25T06:13:06;21.20;99.90
44277;DHT22;29973;43.742;1.236;2022-08-25T06:15:32;21.10;99.90
44277;DHT22;29973;43.742;1.236;2022-08-25T06:17:58;21.20;99.90
44277;DHT22;29973;43.742;1.236;2022-08-25T06:20:28;21.10;99.90
44277;DHT22;29973;43.742;1.236;2022-08-25T06:22:55;21.10;99.90
44277;DHT22;29973;43.742;1.236;2022-08-25T06:25:24;21.20;99.90
44277;DHT22;29973;43.742;1.236;2022-08-25T06:27:51;21.10;99.90
44277;DHT22;29973;43.742;1.236;2022-08-25T06:30:20;21.20;99.90
44277;DHT22;29973;43.742;1.236;2022-08-25T06:32:46;21.30;99.90
44277;DHT22;29973;43.742;1.236;2022-08-25T06:35:16;21.20;99.90
44277;DHT22;29973;43.742;1.236;2022-08-25T06:37:43;21.20;99.90
44277;DHT22;29973;43.742;1.236;2022-08-25T06:40:10;21.10;99.90
44277;DHT22;29973;43.742;1.236;2022-08-25T06:42:37;21.30;99.90
44277;DHT22;29973;43.742;1.236;2022-08-25T06:45:03;21.30;99.90
44277;DHT22;29973;43.742;1.236;2022-08-25T06:47:30;21.20;99.90
44277;DHT22;29973;43.742;1.236;2022-08-25T06:49:56;21.30;99.90
44277;DHT22;29973;43.742;1.236;2022-08-25T06:52:22;21.30;99.90
44277;DHT22;29973;43.742;1.236;2022-08-25T06:54:48;21.50;99.90
44277;DHT22;29973;43.742;1.236;2022-08-25T06:57:14;21.50;99.90
44277;DHT22;29973;43.742;1.236;2022-08-25T06:59:40;21.60;99.90
44277;DHT22;29973;43.742;1.236;2022-08-25T07:02:06;21.70;99.90
44277;DHT22;29973;43.742;1.236;2022-08-25T07:04:33;21.80;99.90
44277;DHT22;29973;43.742;1.236;2022-08-25T07:06:59;21.90;99.90
44277;DHT22;29973;43.742;1.236;2022-08-25T07:09:25;22.10;99.90
44277;DHT22;29973;43.742;1.236;2022-08-25T07:11:50;22.20;99.90
44277;DHT22;29973;43.742;1.236;2022-08-25T07:14:19;22.30;99.90
44277;DHT22;29973;43.742;1.236;2022-08-25T07:16:45;22.20;99.90
44277;DHT22;29973;43.742;1.236;2022-08-25T07:19:11;22.00;99.90
44277;DHT22;29973;43.742;1.236;2022-08-25T07:21:39;22.20;99.90
44277;DHT22;29973;43.742;1.236;2022-08-25T07:24:11;22.40;99.90
44277;DHT22;29973;43.742;1.236;2022-08-25T07:26:39;22.50;99.90
44277;DHT22;29973;43.742;1.236;2022-08-25T07:29:19;22.60;99.90
44277;DHT22;29973;43.742;1.236;2022-08-25T07:31:45;22.60;99.90
44277;DHT22;29973;43.742;1.236;2022-08-25T07:34:11;22.50;99.90
44277;DHT22;29973;43.742;1.236;2022-08-25T07:36:56;22.60;99.90
44277;DHT22;29973;43.742;1.236;2022-08-25T07:39:23;22.60;99.90
44277;DHT22;29973;43.742;1.236;2022-08-25T07:41:50;22.60;99.90
44277;DHT22;29973;43.742;1.236;2022-08-25T07:44:16;22.70;99.90
44277;DHT22;29973;43.742;1.236;2022-08-25T07:46:42;22.80;99.90
44277;DHT22;29973;43.742;1.236;2022-08-25T07:49:07;22.80;99.90
44277;DHT22;29973;43.742;1.236;2022-08-25T07:51:33;22.80;99.90
44277;DHT22;29973;43.742;1.236;2022-08-25T07:53:59;23.00;99.90
44277;DHT22;29973;43.742;1.236;2022-08-25T07:56:25;23.00;99.90
44277;DHT22;29973;43.742;1.236;2022-08-25T07:58:51;23.10;99.90
44277;DHT22;29973;43.742;1.236;2022-08-25T08:01:20;23.20;99.90
44277;DHT22;29973;43.742;1.236;2022-08-25T08:03:46;23.30;99.90
44277;DHT22;29973;43.742;1.236;2022-08-25T08:06:15;23.50;99.90
44277;DHT22;29973;43.742;1.236;2022-08-25T08:08:43;23.50;99.90
44277;DHT22;29973;43.742;1.236;2022-08-25T08:11:22;23.60;99.90
44277;DHT22;29973;43.742;1.236;2022-08-25T08:13:49;23.60;99.90
44277;DHT22;29973;43.742;1.236;2022-08-25T08:16:16;23.60;99.90
44277;DHT22;29973;43.742;1.236;2022-08-25T08:18:43;23.80;99.90
44277;DHT22;29973;43.742;1.236;2022-08-25T08:21:16;24.00;99.90
44277;DHT22;29973;43.742;1.236;2022-08-25T08:23:42;24.10;99.90
44277;DHT22;29973;43.742;1.236;2022-08-25T08:26:08;23.90;99.90
44277;DHT22;29973;43.742;1.236;2022-08-25T08:28:35;24.00;99.90
44277;DHT22;29973;43.742;1.236;2022-08-25T08:31:01;23.80;99.90
44277;DHT22;29973;43.742;1.236;2022-08-25T08:33:26;23.90;99.90
44277;DHT22;29973;43.742;1.236;2022-08-25T08:36:05;24.10;99.90
44277;DHT22;29973;43.742;1.236;2022-08-25T08:38:34;24.00;99.90
44277;DHT22;29973;43.742;1.236;2022-08-25T08:49:56;24.20;99.90
44277;DHT22;29973;43.742;1.236;2022-08-25T08:55:36;24.40;99.90
44277;DHT22;29973;43.742;1.236;2022-08-25T08:58:07;24.90;99.90
44277;DHT22;29973;43.742;1.236;2022-08-25T09:00:41;25.00;99.90
44277;DHT22;29973;43.742;1.236;2022-08-25T09:05:59;24.60;99.90
44277;DHT22;29973;43.742;1.236;2022-08-25T09:08:27;24.50;99.90
44277;DHT22;29973;43.742;1.236;2022-08-25T09:16:58;24.60;99.90
44277;DHT22;29973;43.742;1.236;2022-08-25T09:25:16;24.90;99.90
44277;DHT22;29973;43.742;1.236;2022-08-25T09:31:11;25.10;99.90
44277;DHT22;29973;43.742;1.236;2022-08-25T09:33:38;25.20;99.90
44277;DHT22;29973;43.742;1.236;2022-08-25T09:36:04;24.70;99.90
44277;DHT22;29973;43.742;1.236;2022-08-25T09:38:30;24.90;99.90
44277;DHT22;29973;43.742;1.236;2022-08-25T09:40:59;25.10;99.90
44277;DHT22;29973;43.742;1.236;2022-08-25T09:43:31;25.70;99.90
44277;DHT22;29973;43.742;1.236;2022-08-25T09:46:15;24.80;99.90
44277;DHT22;29973;43.742;1.236;2022-08-25T09:48:43;25.80;99.90
44277;DHT22;29973;43.742;1.236;2022-08-25T09:51:32;25.40;99.90
44277;DHT22;29973;43.742;1.236;2022-08-25T09:54:17;26.10;99.90
44277;DHT22;29973;43.742;1.236;2022-08-25T09:56:57;25.20;99.90
44277;DHT22;29973;43.742;1.236;2022-08-25T09:59:34;25.90;99.90
44277;DHT22;29973;43.742;1.236;2022-08-25T10:02:19;26.00;99.90
44277;DHT22;29973;43.742;1.236;2022-08-25T10:04:46;25.70;99.90
44277;DHT22;29973;43.742;1.236;2022-08-25T10:07:47;26.10;99.90
44277;DHT22;29973;43.742;1.236;2022-08-25T10:10:28;26.30;99.90
44277;DHT22;29973;43.742;1.236;2022-08-25T10:12:54;25.80;99.90
44277;DHT22;29973;43.742;1.236;2022-08-25T10:17:53;25.70;99.90
44277;DHT22;29973;43.742;1.236;2022-08-25T10:20:22;25.90;99.90
44277;DHT22;29973;43.742;1.236;2022-08-25T10:22:50;25.80;99.90
44277;DHT22;29973;43.742;1.236;2022-08-25T10:25:26;25.80;99.90
44277;DHT22;29973;43.742;1.236;2022-08-25T10:36:26;26.10;99.90
44277;DHT22;29973;43.742;1.236;2022-08-25T10:39:00;26.40;99.90
44277;DHT22;29973;43.742;1.236;2022-08-25T10:41:48;26.60;99.90
44277;DHT22;29973;43.742;1.236;2022-08-25T10:44:29;26.30;99.90
44277;DHT22;29973;43.742;1.236;2022-08-25T10:47:41;27.60;99.90
44277;DHT22;29973;43.742;1.236;2022-08-25T10:50:27;27.50;99.90
44277;DHT22;29973;43.742;1.236;2022-08-25T10:58:30;29.20;99.90
44277;DHT22;29973;43.742;1.236;2022-08-25T11:01:34;28.40;99.90
44277;DHT22;29973;43.742;1.236;2022-08-25T11:04:13;28.30;99.90
44277;DHT22;29973;43.742;1.236;2022-08-25T11:06:47;27.90;99.90
44277;DHT22;29973;43.742;1.236;2022-08-25T11:09:21;27.50;99.90
44277;DHT22;29973;43.742;1.236;2022-08-25T11:12:00;28.20;99.90
44277;DHT22;29973;43.742;1.236;2022-08-25T11:14:33;31.00;99.90
44277;DHT22;29973;43.742;1.236;2022-08-25T11:17:09;29.90;99.90
44277;DHT22;29973;43.742;1.236;2022-08-25T11:19:36;29.40;99.90
44277;DHT22;29973;43.742;1.236;2022-08-25T11:30:21;30.30;99.90
44277;DHT22;29973;43.742;1.236;2022-08-25T11:32:51;30.70;99.90
44277;DHT22;29973;43.742;1.236;2022-08-25T11:35:25;31.70;99.90
44277;DHT22;29973;43.742;1.236;2022-08-25T11:40:59;29.50;99.90
44277;DHT22;29973;43.742;1.236;2022-08-25T11:46:25;29.50;99.90
44277;DHT22;29973;43.742;1.236;2022-08-25T11:51:44;28.80;99.90
44277;DHT22;29973;43.742;1.236;2022-08-25T11:57:06;28.90;99.90
44277;DHT22;29973;43.742;1.236;2022-08-25T12:04:55;30.00;99.90
44277;DHT22;29973;43.742;1.236;2022-08-25T12:07:25;28.20;99.90
44277;DHT22;29973;43.742;1.236;2022-08-25T12:12:36;30.30;99.90
44277;DHT22;29973;43.742;1.236;2022-08-25T12:18:17;31.20;99.90
44277;DHT22;29973;43.742;1.236;2022-08-25T12:24:09;28.90;99.90
44277;DHT22;29973;43.742;1.236;2022-08-25T12:29:29;28.30;99.90
44277;DHT22;29973;43.742;1.236;2022-08-25T12:34:40;29.40;99.90
44277;DHT22;29973;43.742;1.236;2022-08-25T12:37:20;28.90;99.90
44277;DHT22;29973;43.742;1.236;2022-08-25T12:42:38;28.20;99.90
44277;DHT22;29973;43.742;1.236;2022-08-25T12:45:28;28.20;99.90
44277;DHT22;29973;43.742;1.236;2022-08-25T12:48:36;29.90;99.90
44277;DHT22;29973;43.742;1.236;2022-08-25T12:51:16;29.60;99.90
44277;DHT22;29973;43.742;1.236;2022-08-25T12:56:57;33.90;99.90
44277;DHT22;29973;43.742;1.236;2022-08-25T12:59:37;32.50;99.90
44277;DHT22;29973;43.742;1.236;2022-08-25T13:02:14;31.80;99.90
44277;DHT22;29973;43.742;1.236;2022-08-25T13:10:37;30.60;99.90
44277;DHT22;29973;43.742;1.236;2022-08-25T13:15:44;33.40;99.90
44277;DHT22;29973;43.742;1.236;2022-08-25T13:18:20;35.00;99.90
44277;DHT22;29973;43.742;1.236;2022-08-25T13:21:06;33.80;99.90
44277;DHT22;29973;43.742;1.236;2022-08-25T13:23:36;32.40;99.90
44277;DHT22;29973;43.742;1.236;2022-08-25T13:26:03;30.80;99.90
44277;DHT22;29973;43.742;1.236;2022-08-25T13:28:33;33.40;99.90
44277;DHT22;29973;43.742;1.236;2022-08-25T13:33:29;32.50;99.90
44277;DHT22;29973;43.742;1.236;2022-08-25T13:35:57;33.90;99.90
44277;DHT22;29973;43.742;1.236;2022-08-25T13:38:43;37.30;99.90
44277;DHT22;29973;43.742;1.236;2022-08-25T13:41:15;35.40;99.90
44277;DHT22;29973;43.742;1.236;2022-08-25T13:43:41;35.50;99.90
44277;DHT22;29973;43.742;1.236;2022-08-25T13:46:07;34.70;99.90
44277;DHT22;29973;43.742;1.236;2022-08-25T13:48:39;35.20;99.90
44277;DHT22;29973;43.742;1.236;2022-08-25T13:51:09;33.40;99.90
44277;DHT22;29973;43.742;1.236;2022-08-25T13:53:57;32.90;99.90
44277;DHT22;29973;43.742;1.236;2022-08-25T13:56:35;35.20;99.90
44277;DHT22;29973;43.742;1.236;2022-08-25T13:59:04;36.30;99.90
44277;DHT22;29973;43.742;1.236;2022-08-25T14:01:33;34.70;99.90
44277;DHT22;29973;43.742;1.236;2022-08-25T14:04:27;34.10;99.90
44277;DHT22;29973;43.742;1.236;2022-08-25T14:07:13;37.40;99.90
44277;DHT22;29973;43.742;1.236;2022-08-25T14:09:50;37.70;99.90
44277;DHT22;29973;43.742;1.236;2022-08-25T14:12:43;40.00;99.90
44277;DHT22;29973;43.742;1.236;2022-08-25T14:17:43;31.60;99.90
44277;DHT22;29973;43.742;1.236;2022-08-25T14:20:23;33.70;99.90
44277;DHT22;29973;43.742;1.236;2022-08-25T14:22:55;32.30;99.90
44277;DHT22;29973;43.742;1.236;2022-08-25T14:25:22;34.30;99.90
44277;DHT22;29973;43.742;1.236;2022-08-25T14:27:59;35.40;99.90
44277;DHT22;29973;43.742;1.236;2022-08-25T14:30:27;38.00;99.90
44277;DHT22;29973;43.742;1.236;2022-08-25T14:32:54;33.80;99.90
44277;DHT22;29973;43.742;1.236;2022-08-25T14:35:20;36.00;99.90
44277;DHT22;29973;43.742;1.236;2022-08-25T14:37:46;33.00;99.90
44277;DHT22;29973;43.742;1.236;2022-08-25T14:40:13;36.40;99.90
44277;DHT22;29973;43.742;1.236;2022-08-25T14:42:47;32.10;99.90
44277;DHT22;29973;43.742;1.236;2022-08-25T14:45:16;31.80;99.90
44277;DHT22;29973;43.742;1.236;2022-08-25T14:47:43;33.60;99.90
44277;DHT22;29973;43.742;1.236;2022-08-25T14:50:11;36.30;99.90
44277;DHT22;29973;43.742;1.236;2022-08-25T14:52:40;39.10;99.90
44277;DHT22;29973;43.742;1.236;2022-08-25T14:55:07;36.90;99.90
44277;DHT22;29973;43.742;1.236;2022-08-25T14:57:34;35.90;99.90
44277;DHT22;29973;43.742;1.236;2022-08-25T15:00:00;37.80;99.90
44277;DHT22;29973;43.742;1.236;2022-08-25T15:02:27;36.10;99.90
44277;DHT22;29973;43.742;1.236;2022-08-25T15:04:56;35.40;99.90
44277;DHT22;29973;43.742;1.236;2022-08-25T15:07:23;32.90;99.90
44277;DHT22;29973;43.742;1.236;2022-08-25T15:10:08;36.10;99.90
44277;DHT22;29973;43.742;1.236;2022-08-25T15:12:34;38.70;99.90
44277;DHT22;29973;43.742;1.236;2022-08-25T15:15:00;38.50;97.60
44277;DHT22;29973;43.742;1.236;2022-08-25T15:17:29;38.00;97.30
44277;DHT22;29973;43.742;1.236;2022-08-25T15:19:55;36.40;98.10
44277;DHT22;29973;43.742;1.236;2022-08-25T15:22:21;37.30;99.10
44277;DHT22;29973;43.742;1.236;2022-08-25T15:24:47;39.10;97.20
44277;DHT22;29973;43.742;1.236;2022-08-25T15:27:13;37.80;97.00
44277;DHT22;29973;43.742;1.236;2022-08-25T15:29:40;39.20;96.70
44277;DHT22;29973;43.742;1.236;2022-08-25T15:32:07;40.70;96.00
44277;DHT22;29973;43.742;1.236;2022-08-25T15:34:34;40.40;94.50
44277;DHT22;29973;43.742;1.236;2022-08-25T15:37:13;37.50;94.20
44277;DHT22;29973;43.742;1.236;2022-08-25T15:39:40;38.10;96.60
44277;DHT22;29973;43.742;1.236;2022-08-25T15:42:08;32.20;99.40
44277;DHT22;29973;43.742;1.236;2022-08-25T15:44:34;31.60;99.90
44277;DHT22;29973;43.742;1.236;2022-08-25T15:47:00;31.10;99.90
44277;DHT22;29973;43.742;1.236;2022-08-25T15:49:27;30.90;99.90
44277;DHT22;29973;43.742;1.236;2022-08-25T15:51:53;34.40;99.90
44277;DHT22;29973;43.742;1.236;2022-08-25T15:54:23;36.40;99.90
44277;DHT22;29973;43.742;1.236;2022-08-25T15:56:51;37.70;97.70
44277;DHT22;29973;43.742;1.236;2022-08-25T15:59:18;36.60;98.50
44277;DHT22;29973;43.742;1.236;2022-08-25T16:01:43;35.60;97.70
44277;DHT22;29973;43.742;1.236;2022-08-25T16:04:10;35.60;98.10
44277;DHT22;29973;43.742;1.236;2022-08-25T16:06:36;33.80;99.90
44277;DHT22;29973;43.742;1.236;2022-08-25T16:09:04;32.60;99.90
44277;DHT22;29973;43.742;1.236;2022-08-25T16:11:31;32.30;99.90
44277;DHT22;29973;43.742;1.236;2022-08-25T16:13:59;33.60;99.90
44277;DHT22;29973;43.742;1.236;2022-08-25T16:16:27;35.20;99.80
44277;DHT22;29973;43.742;1.236;2022-08-25T16:18:54;35.70;98.90
44277;DHT22;29973;43.742;1.236;2022-08-25T16:21:30;37.70;96.80
44277;DHT22;29973;43.742;1.236;2022-08-25T16:24:00;36.90;96.10
44277;DHT22;29973;43.742;1.236;2022-08-25T16:26:26;35.50;97.00
44277;DHT22;29973;43.742;1.236;2022-08-25T16:28:52;31.50;99.90
44277;DHT22;29973;43.742;1.236;2022-08-25T16:31:19;31.60;99.90
44277;DHT22;29973;43.742;1.236;2022-08-25T16:33:45;31.60;99.90
44277;DHT22;29973;43.742;1.236;2022-08-25T16:36:16;33.50;99.90
44277;DHT22;29973;43.742;1.236;2022-08-25T16:38:44;32.20;99.90
44277;DHT22;29973;43.742;1.236;2022-08-25T16:41:13;31.30;99.90
44277;DHT22;29973;43.742;1.236;2022-08-25T16:43:40;31.90;99.90
44277;DHT22;29973;43.742;1.236;2022-08-25T16:46:09;32.90;99.90
44277;DHT22;29973;43.742;1.236;2022-08-25T16:48:35;34.10;99.60
44277;DHT22;29973;43.742;1.236;2022-08-25T16:51:17;31.70;99.90
44277;DHT22;29973;43.742;1.236;2022-08-25T16:53:43;30.60;99.90
44277;DHT22;29973;43.742;1.236;2022-08-25T16:56:27;31.60;99.90
44277;DHT22;29973;43.742;1.236;2022-08-25T16:58:55;31.30;99.90
44277;DHT22;29973;43.742;1.236;2022-08-25T17:01:21;30.30;99.90
44277;DHT22;29973;43.742;1.236;2022-08-25T17:03:51;30.30;99.90
44277;DHT22;29973;43.742;1.236;2022-08-25T17:06:17;30.20;99.90
44277;DHT22;29973;43.742;1.236;2022-08-25T17:08:43;30.80;99.90
44277;DHT22;29973;43.742;1.236;2022-08-25T17:11:15;30.80;99.90
44277;DHT22;29973;43.742;1.236;2022-08-25T17:13:48;33.40;99.90
44277;DHT22;29973;43.742;1.236;2022-08-25T17:16:34;33.50;99.50
44277;DHT22;29973;43.742;1.236;2022-08-25T17:19:04;32.70;98.50
44277;DHT22;29973;43.742;1.236;2022-08-25T17:21:33;32.30;99.80
44277;DHT22;29973;43.742;1.236;2022-08-25T17:24:03;32.60;99.90
44277;DHT22;29973;43.742;1.236;2022-08-25T17:26:29;32.00;99.40
44277;DHT22;29973;43.742;1.236;2022-08-25T17:28:59;32.60;99.90
44277;DHT22;29973;43.742;1.236;2022-08-25T17:31:26;32.10;99.90
44277;DHT22;29973;43.742;1.236;2022-08-25T17:33:52;33.40;99.30
44277;DHT22;29973;43.742;1.236;2022-08-25T17:36:18;32.40;99.70
44277;DHT22;29973;43.742;1.236;2022-08-25T17:38:44;31.20;99.90